Time;durP1;ratioP1;P1;durP2;ratioP2;P2;SDS_P1;SDS_P2;PMS_P1;PMS_P2;Temp;Humidity;BMP_temperature;BMP_pressure;BME280_temperature;BME280_humidity;BME280_pressure;Samples;Min_cycle;Max_cycle;Signal;HPM_P1;HPM_P2
2022/04/16 00:00:20;;;;;;;1999.90;999.90;;;9.70;99.90;;;;;;5032969;28;20406;-72
2022/04/16 00:02:46;;;;;;;1999.90;999.90;;;9.70;99.90;;;;;;5033050;28;20496;-69
2022/04/16 00:05:12;;;;;;;1999.90;999.90;;;9.70;99.90;;;;;;5032924;28;20430;-69
2022/04/16 00:07:38;;;;;;;1999.90;999.90;;;9.80;99.90;;;;;;5033021;28;20851;-69
2022/04/16 00:10:05;;;;;;;1999.90;999.90;;;9.80;99.90;;;;;;5032024;28;20410;-69
2022/04/16 00:12:30;;;;;;;1999.90;999.90;;;9.70;99.90;;;;;;5032826;28;20175;-69
2022/04/16 00:14:56;;;;;;;1999.90;999.90;;;9.60;99.90;;;;;;5032442;28;20564;-69
2022/04/16 00:17:22;;;;;;;1999.90;999.90;;;9.60;99.90;;;;;;5032639;28;20186;-69
2022/04/16 00:19:47;;;;;;;1999.90;999.90;;;9.60;99.90;;;;;;5032640;28;20172;-69
2022/04/16 00:22:13;;;;;;;1999.90;999.90;;;9.60;99.90;;;;;;5032664;28;20248;-70
2022/04/16 00:24:40;;;;;;;1999.90;999.90;;;9.50;99.90;;;;;;5032374;28;20703;-70
2022/04/16 00:27:12;;;;;;;1999.90;999.90;;;9.50;99.90;;;;;;5071876;23;20210;-72
2022/04/16 00:29:37;;;;;;;1999.90;999.90;;;9.50;99.90;;;;;;5012592;28;20501;-72
2022/04/16 00:32:05;;;;;;;1999.90;999.90;;;9.50;99.90;;;;;;5012892;28;20513;-72
2022/04/16 00:34:34;;;;;;;1999.90;999.90;;;9.50;99.90;;;;;;5012401;28;20206;-72
2022/04/16 00:37:00;;;;;;;1999.90;999.90;;;9.50;99.90;;;;;;5012697;28;20488;-72
2022/04/16 00:39:26;;;;;;;1999.90;999.90;;;9.50;99.90;;;;;;5012960;28;20953;-72
2022/04/16 00:41:51;;;;;;;1999.90;999.90;;;9.50;99.90;;;;;;5012669;28;20414;-72
2022/04/16 00:44:20;;;;;;;1999.90;999.90;;;9.50;99.90;;;;;;5012294;28;20485;-72
2022/04/16 00:46:49;;;;;;;1999.90;999.90;;;9.50;99.90;;;;;;5012611;28;20246;-72
2022/04/16 00:49:15;;;;;;;1999.90;999.90;;;9.50;99.90;;;;;;5012386;28;20423;-72
2022/04/16 00:51:45;;;;;;;1999.90;999.90;;;9.50;99.90;;;;;;5012459;28;20414;-72
2022/04/16 00:54:12;;;;;;;1999.90;999.90;;;9.50;99.90;;;;;;5012132;28;20191;-72
2022/04/16 00:56:38;;;;;;;1999.90;999.90;;;9.50;99.90;;;;;;5012445;28;20421;-72
2022/04/16 00:59:07;;;;;;;1999.90;999.90;;;9.40;99.90;;;;;;5012323;28;20450;-72
2022/04/16 01:01:33;;;;;;;1999.90;999.90;;;9.40;99.90;;;;;;5012336;28;20518;-72
2022/04/16 01:03:59;;;;;;;1999.90;999.90;;;9.40;99.90;;;;;;5012185;28;20532;-72
2022/04/16 01:06:36;;;;;;;1999.90;999.90;;;9.40;99.90;;;;;;5012258;28;20781;-72
2022/04/16 01:09:03;;;;;;;1999.90;999.90;;;9.40;99.90;;;;;;5012205;28;20632;-72
2022/04/16 01:11:28;;;;;;;1999.90;999.90;;;9.40;99.90;;;;;;5012234;28;20425;-72
2022/04/16 01:13:55;;;;;;;1999.90;999.90;;;9.40;99.90;;;;;;5012098;28;20411;-72
2022/04/16 01:16:20;;;;;;;1999.90;999.90;;;9.40;99.90;;;;;;5011989;28;20653;-72
2022/04/16 01:18:46;;;;;;;1999.90;999.90;;;9.40;99.90;;;;;;5012099;28;20430;-72
2022/04/16 01:21:13;;;;;;;1999.90;999.90;;;9.30;99.90;;;;;;5013505;28;20563;-72
2022/04/16 01:23:39;;;;;;;1999.90;999.90;;;9.30;99.90;;;;;;5016518;28;20679;-73
2022/04/16 01:26:05;;;;;;;1999.90;999.90;;;9.20;99.90;;;;;;5015886;28;20406;-72
2022/04/16 01:28:30;;;;;;;1999.90;999.90;;;9.20;99.90;;;;;;4998716;28;20507;-73
2022/04/16 01:30:56;;;;;;;1999.90;999.90;;;9.20;99.90;;;;;;5016063;28;20190;-72
2022/04/16 01:33:22;;;;;;;1999.90;999.90;;;9.20;99.90;;;;;;5016107;28;20669;-72
2022/04/16 01:35:53;;;;;;;1999.90;999.90;;;9.30;99.90;;;;;;5015677;28;20295;-72
2022/04/16 01:38:19;;;;;;;1999.90;999.90;;;9.20;99.90;;;;;;5015926;28;20431;-73
2022/04/16 01:40:44;;;;;;;1999.90;999.90;;;9.10;99.90;;;;;;5015969;28;20485;-73
2022/04/16 01:43:10;;;;;;;1999.90;999.90;;;9.10;99.90;;;;;;5015981;28;20442;-72
2022/04/16 01:45:36;;;;;;;1999.90;999.90;;;9.00;99.90;;;;;;5015640;28;20798;-72
2022/04/16 01:48:01;;;;;;;1999.90;999.90;;;9.00;99.90;;;;;;5015685;28;20195;-72
2022/04/16 01:50:27;;;;;;;1999.90;999.90;;;9.00;99.90;;;;;;5015848;28;20251;-73
2022/04/16 01:52:54;;;;;;;1999.90;999.90;;;8.90;99.90;;;;;;5015662;28;20175;-72
2022/04/16 01:55:20;;;;;;;1999.90;999.90;;;8.90;99.90;;;;;;5015350;28;20197;-72
2022/04/16 01:57:45;;;;;;;1999.90;999.90;;;8.90;99.90;;;;;;5015690;28;20568;-72
2022/04/16 02:00:14;;;;;;;1999.90;999.90;;;8.90;99.90;;;;;;5015603;28;20199;-71
2022/04/16 02:02:41;;;;;;;1999.90;999.90;;;8.90;99.90;;;;;;5015504;28;20175;-72
2022/04/16 02:05:08;;;;;;;1999.90;999.90;;;8.80;99.90;;;;;;5015229;28;20881;-72
2022/04/16 02:07:34;;;;;;;1999.90;999.90;;;8.70;99.90;;;;;;5015286;28;20432;-73
2022/04/16 02:10:00;;;;;;;1999.90;999.90;;;8.60;99.90;;;;;;5015558;28;20433;-72
2022/04/16 02:12:26;;;;;;;1999.90;999.90;;;8.40;99.90;;;;;;5015605;28;20409;-72
2022/04/16 02:14:52;;;;;;;1999.90;999.90;;;8.40;99.90;;;;;;5014989;28;20452;-73
2022/04/16 02:17:18;;;;;;;1999.90;999.90;;;8.30;99.90;;;;;;5016028;28;20231;-72
2022/04/16 02:19:43;;;;;;;1999.90;999.90;;;8.30;99.90;;;;;;4999399;28;20536;-73
2022/04/16 02:22:11;;;;;;;1999.90;999.90;;;8.30;99.90;;;;;;5016774;28;20248;-72
2022/04/16 02:24:38;;;;;;;1999.90;999.90;;;8.30;99.90;;;;;;5016847;28;20160;-73
2022/04/16 02:27:04;;;;;;;1999.90;999.90;;;8.20;99.90;;;;;;5016645;28;20404;-72
2022/04/16 02:29:31;;;;;;;1999.90;999.90;;;8.30;99.90;;;;;;5016838;28;20424;-72
2022/04/16 02:31:57;;;;;;;1999.90;999.90;;;8.20;99.90;;;;;;5016383;28;20458;-72
2022/04/16 02:34:22;;;;;;;1999.90;999.90;;;8.20;99.90;;;;;;5015207;28;20816;-73
2022/04/16 02:36:48;;;;;;;1999.90;999.90;;;8.20;99.90;;;;;;5016388;28;20180;-73
2022/04/16 02:39:15;;;;;;;1999.90;999.90;;;8.00;99.90;;;;;;5016503;28;20196;-73
2022/04/16 02:41:41;;;;;;;1999.90;999.90;;;7.90;99.90;;;;;;5016645;28;20197;-72
2022/04/16 02:47:04;;;;;;;1999.90;999.90;;;7.90;99.90;;;;;;5016296;28;20412;-72
2022/04/16 02:47:08;;;;;;;1999.90;999.90;;;7.90;99.90;;;;;;5016477;28;20408;-72
2022/04/16 02:49:35;;;;;;;1999.90;999.90;;;7.90;99.90;;;;;;4998611;28;20415;-73
2022/04/16 02:52:01;;;;;;;1999.90;999.90;;;7.90;99.90;;;;;;5016014;28;20412;-72
2022/04/16 02:54:27;;;;;;;1999.90;999.90;;;7.90;99.90;;;;;;5015610;28;20447;-72
2022/04/16 02:56:55;;;;;;;1999.90;999.90;;;7.90;99.90;;;;;;5015968;28;20770;-72
2022/04/16 02:59:20;;;;;;;1999.90;999.90;;;7.90;99.90;;;;;;5015913;28;20175;-73
2022/04/16 03:01:46;;;;;;;1999.90;999.90;;;8.00;99.90;;;;;;5015773;28;20426;-72
2022/04/16 03:04:11;;;;;;;1999.90;999.90;;;8.00;99.90;;;;;;5015434;28;20224;-72
2022/04/16 03:06:37;;;;;;;1999.90;999.90;;;7.90;99.90;;;;;;5015938;28;20173;-73
2022/04/16 03:09:03;;;;;;;1999.90;999.90;;;7.90;99.90;;;;;;5015896;28;20189;-72
2022/04/16 03:11:28;;;;;;;1999.90;999.90;;;8.00;99.90;;;;;;5016246;28;20170;-73
2022/04/16 03:13:54;;;;;;;1999.90;999.90;;;8.10;99.90;;;;;;5015473;28;20179;-72
2022/04/16 03:19:04;;;;;;;1999.90;999.90;;;7.90;99.90;;;;;;5015562;28;20196;-73
2022/04/16 03:21:29;;;;;;;1999.90;999.90;;;7.60;99.90;;;;;;5016916;28;20408;-73
2022/04/16 03:23:55;;;;;;;1999.90;999.90;;;7.50;99.90;;;;;;5015970;28;20413;-73
2022/04/16 03:26:20;;;;;;;1999.90;999.90;;;7.50;99.90;;;;;;4997964;28;20173;-72
2022/04/16 03:28:46;;;;;;;1999.90;999.90;;;7.60;99.90;;;;;;5015252;28;20205;-73
2022/04/16 03:31:12;;;;;;;1999.90;999.90;;;7.60;99.90;;;;;;5015354;28;20258;-71
2022/04/16 03:33:38;;;;;;;1999.90;999.90;;;7.50;99.90;;;;;;5014382;28;20174;-72
2022/04/16 03:36:04;;;;;;;1999.90;999.90;;;7.60;99.90;;;;;;5015001;28;20246;-72
2022/04/16 03:38:31;;;;;;;1999.90;999.90;;;7.60;99.90;;;;;;5015289;28;20463;-72
2022/04/16 03:40:57;;;;;;;1999.90;999.90;;;7.60;99.90;;;;;;5015325;28;20440;-73
2022/04/16 03:43:26;;;;;;;1999.90;999.90;;;7.60;99.90;;;;;;5015161;28;20907;-72
2022/04/16 03:45:51;;;;;;;1999.90;999.90;;;7.50;99.90;;;;;;5014539;28;20409;-73
2022/04/16 03:48:17;;;;;;;1999.90;999.90;;;7.50;99.90;;;;;;4997557;28;20798;-72
2022/04/16 03:50:43;;;;;;;1999.90;999.90;;;7.40;99.90;;;;;;5014958;28;20176;-72
2022/04/16 03:53:09;;;;;;;1999.90;999.90;;;7.30;99.90;;;;;;5015317;28;20178;-73
2022/04/16 04:01:05;;;;;;;1999.90;999.90;;;7.20;99.90;;;;;;5015253;28;20431;-72
2022/04/16 04:03:30;;;;;;;1999.90;999.90;;;7.10;99.90;;;;;;5015033;28;20417;-72
2022/04/16 04:05:58;;;;;;;1999.90;999.90;;;7.00;99.90;;;;;;5014717;28;20499;-72
2022/04/16 04:08:25;;;;;;;1999.90;999.90;;;7.00;99.90;;;;;;5014887;28;20251;-72
2022/04/16 04:10:51;;;;;;;1999.90;999.90;;;7.10;99.90;;;;;;5014676;28;20819;-73
2022/04/16 04:13:18;;;;;;;1999.90;999.90;;;7.00;99.90;;;;;;5014770;28;20535;-73
2022/04/16 04:15:44;;;;;;;1999.90;999.90;;;7.00;99.90;;;;;;5014522;28;20460;-73
2022/04/16 04:18:10;;;;;;;1999.90;999.90;;;7.00;99.90;;;;;;5014587;28;20428;-72
2022/04/16 04:20:36;;;;;;;1999.90;999.90;;;7.00;99.90;;;;;;5014511;28;20404;-73
2022/04/16 04:23:03;;;;;;;1999.90;999.90;;;7.10;99.90;;;;;;5014440;28;20873;-73
2022/04/16 04:25:28;;;;;;;1999.90;999.90;;;7.10;99.90;;;;;;5014201;28;20173;-72
2022/04/16 04:27:54;;;;;;;1999.90;999.90;;;7.10;99.90;;;;;;5014033;28;20530;-72
2022/04/16 04:30:19;;;;;;;1999.90;999.90;;;7.10;99.90;;;;;;5014418;28;20547;-73
2022/04/16 04:32:45;;;;;;;1999.90;999.90;;;7.10;99.90;;;;;;5014680;28;20169;-72
2022/04/16 04:35:11;;;;;;;1999.90;999.90;;;7.20;99.90;;;;;;5013868;28;20560;-73
2022/04/16 04:37:37;;;;;;;1999.90;999.90;;;7.10;99.90;;;;;;5014082;28;20196;-73
2022/04/16 04:40:04;;;;;;;1999.90;999.90;;;7.10;99.90;;;;;;5014140;28;20538;-72
2022/04/16 04:42:31;;;;;;;1999.90;999.90;;;6.90;99.90;;;;;;5014099;28;20417;-73
2022/04/16 04:44:58;;;;;;;1999.90;999.90;;;6.80;99.90;;;;;;5013988;28;21024;-73
2022/04/16 04:47:25;;;;;;;1999.90;999.90;;;6.90;99.90;;;;;;5013706;28;20437;-73
2022/04/16 04:49:51;;;;;;;1999.90;999.90;;;6.90;99.90;;;;;;5013960;28;20424;-73
2022/04/16 04:52:26;;;;;;;1999.90;999.90;;;6.90;99.90;;;;;;5013999;28;20412;-73
2022/04/16 04:54:52;;;;;;;1999.90;999.90;;;7.00;99.90;;;;;;5013834;28;20979;-72
2022/04/16 04:57:18;;;;;;;1999.90;999.90;;;7.00;99.90;;;;;;5013165;28;20428;-72
2022/04/16 04:59:43;;;;;;;1999.90;999.90;;;6.90;99.90;;;;;;5014275;28;20499;-72
2022/04/16 05:02:09;;;;;;;1999.90;999.90;;;6.90;99.90;;;;;;5014372;28;20542;-72
2022/04/16 05:04:35;;;;;;;1999.90;999.90;;;6.90;99.90;;;;;;5013556;28;20215;-72
2022/04/16 05:07:03;;;;;;;1999.90;999.90;;;6.90;99.90;;;;;;5014227;28;20478;-72
2022/04/16 05:09:29;;;;;;;1999.90;999.90;;;7.00;99.90;;;;;;5013946;28;20169;-73
2022/04/16 05:11:54;;;;;;;1999.90;999.90;;;7.10;99.90;;;;;;5013273;28;20470;-73
2022/04/16 05:14:21;;;;;;;1999.90;999.90;;;7.10;99.90;;;;;;5012136;28;20454;-73
2022/04/16 05:16:47;;;;;;;1999.90;999.90;;;7.20;99.90;;;;;;5012638;28;20166;-73
2022/04/16 05:19:14;;;;;;;1999.90;999.90;;;7.10;99.90;;;;;;5012218;28;20432;-73
2022/04/16 05:21:40;;;;;;;1999.90;999.90;;;7.20;99.90;;;;;;4994822;28;20452;-73
2022/04/16 05:24:06;;;;;;;1999.90;999.90;;;7.20;99.90;;;;;;5012202;28;20431;-73
2022/04/16 05:26:32;;;;;;;1999.90;999.90;;;7.20;99.90;;;;;;4995239;28;20635;-73
2022/04/16 05:28:58;;;;;;;1999.90;999.90;;;7.30;99.90;;;;;;5012288;28;20498;-73
2022/04/16 05:31:26;;;;;;;1999.90;999.90;;;7.30;99.90;;;;;;5012236;28;20404;-73
2022/04/16 05:36:37;;;;;;;1999.90;999.90;;;7.30;99.90;;;;;;5012555;28;20391;-73
2022/04/16 05:39:03;;;;;;;1999.90;999.90;;;7.30;99.90;;;;;;5012279;28;20420;-73
2022/04/16 05:41:28;;;;;;;1999.90;999.90;;;7.40;99.90;;;;;;5012334;28;20184;-73
2022/04/16 05:43:54;;;;;;;1999.90;999.90;;;7.50;99.90;;;;;;5012304;28;20475;-73
2022/04/16 05:46:19;;;;;;;1999.90;999.90;;;7.60;99.90;;;;;;5011832;28;20169;-73
2022/04/16 05:48:45;;;;;;;1999.90;999.90;;;7.80;99.90;;;;;;5012029;28;20268;-74
2022/04/16 05:51:11;;;;;;;1999.90;999.90;;;7.80;99.90;;;;;;5012244;28;20619;-74
2022/04/16 05:53:37;;;;;;;1999.90;999.90;;;7.90;99.90;;;;;;5012148;28;20169;-74
2022/04/16 05:56:03;;;;;;;1999.90;999.90;;;8.00;99.90;;;;;;5011720;28;20454;-74
2022/04/16 05:58:29;;;;;;;1999.90;999.90;;;8.10;99.90;;;;;;5012081;28;20429;-74
2022/04/16 06:00:54;;;;;;;1999.90;999.90;;;8.20;99.90;;;;;;5012048;28;20400;-74
2022/04/16 06:03:20;;;;;;;1999.90;999.90;;;8.30;99.90;;;;;;5011915;28;20289;-73
2022/04/16 06:05:46;;;;;;;1999.90;999.90;;;8.40;99.90;;;;;;5011703;28;20253;-73
2022/04/16 06:08:12;;;;;;;1999.90;999.90;;;8.50;99.90;;;;;;5014341;28;20185;-73
2022/04/16 06:10:37;;;;;;;1999.90;999.90;;;8.60;99.90;;;;;;5015593;28;20662;-73
2022/04/16 06:13:04;;;;;;;1999.90;999.90;;;8.60;99.90;;;;;;5015589;28;20245;-73
2022/04/16 06:15:31;;;;;;;1999.90;999.90;;;8.60;99.90;;;;;;5015138;28;20654;-74
2022/04/16 06:17:57;;;;;;;1999.90;999.90;;;8.60;99.90;;;;;;5015474;28;20564;-74
2022/04/16 06:20:23;;;;;;;1999.90;999.90;;;8.70;99.90;;;;;;5015531;28;20402;-74
2022/04/16 06:22:49;;;;;;;1999.90;999.90;;;8.70;99.90;;;;;;5015520;28;20497;-74
2022/04/16 06:25:14;;;;;;;1999.90;999.90;;;8.90;99.90;;;;;;5015223;28;20503;-74
2022/04/16 06:27:40;;;;;;;1999.90;999.90;;;9.00;99.90;;;;;;5014907;22;20261;-69
2022/04/16 06:30:10;;;;;;;1999.90;999.90;;;9.10;99.90;;;;;;5034801;28;20186;-69
2022/04/16 06:32:37;;;;;;;1999.90;999.90;;;9.10;99.90;;;;;;5035048;28;20774;-69
2022/04/16 06:35:05;;;;;;;1999.90;999.90;;;9.30;99.90;;;;;;5034649;28;20550;-69
2022/04/16 06:37:32;;;;;;;1999.90;999.90;;;9.30;99.90;;;;;;5034686;28;20903;-69
2022/04/16 06:39:58;;;;;;;1999.90;999.90;;;9.40;99.90;;;;;;5034669;28;20400;-69
2022/04/16 06:42:23;;;;;;;1999.90;999.90;;;9.60;99.90;;;;;;5034698;28;20983;-69
2022/04/16 06:44:49;;;;;;;1999.90;999.90;;;9.60;99.90;;;;;;5034464;28;20595;-69
2022/04/16 06:47:14;;;;;;;1999.90;999.90;;;9.70;99.90;;;;;;5034637;28;20171;-69
2022/04/16 06:49:40;;;;;;;1999.90;999.90;;;9.80;99.90;;;;;;5034668;28;20192;-69
2022/04/16 06:52:06;;;;;;;1999.90;999.90;;;9.90;99.90;;;;;;5034692;28;20168;-69
2022/04/16 06:54:31;;;;;;;1999.90;999.90;;;9.90;99.90;;;;;;5034184;28;20288;-69
2022/04/16 06:56:57;;;;;;;1999.90;999.90;;;10.10;99.90;;;;;;5034461;28;20453;-69
2022/04/16 06:59:23;;;;;;;1999.90;999.90;;;10.10;99.90;;;;;;5034353;28;20187;-69
2022/04/16 07:01:48;;;;;;;1999.90;999.90;;;10.20;99.90;;;;;;5034354;28;20668;-69
2022/04/16 07:04:14;;;;;;;1999.90;999.90;;;10.30;99.90;;;;;;5034095;28;20289;-69
2022/04/16 07:06:41;;;;;;;1999.90;999.90;;;10.30;99.90;;;;;;5034335;28;20180;-69
2022/04/16 07:09:07;;;;;;;1999.90;999.90;;;10.40;99.90;;;;;;5034054;28;20194;-69
2022/04/16 07:11:33;;;;;;;1999.90;999.90;;;10.60;99.90;;;;;;5034354;28;20923;-69
2022/04/16 07:13:58;;;;;;;1999.90;999.90;;;10.70;99.90;;;;;;5033883;28;20421;-69
2022/04/16 07:16:24;;;;;;;1999.90;999.90;;;10.70;99.90;;;;;;5040657;28;20196;-69
2022/04/16 07:18:49;;;;;;;1999.90;999.90;;;10.80;99.90;;;;;;5022774;28;20250;-70
2022/04/16 07:21:15;;;;;;;1999.90;999.90;;;10.90;99.90;;;;;;5041083;28;20167;-69
2022/04/16 07:23:41;;;;;;;1999.90;999.90;;;11.00;99.90;;;;;;5041366;28;20168;-68
2022/04/16 07:26:07;;;;;;;1999.90;999.90;;;11.20;99.90;;;;;;5041096;28;21053;-69
2022/04/16 07:28:32;;;;;;;1999.90;999.90;;;11.30;99.90;;;;;;5040908;28;20204;-69
2022/04/16 07:30:58;;;;;;;1999.90;999.90;;;11.40;99.90;;;;;;5041073;28;20210;-69
2022/04/16 07:33:29;;;;;;;1999.90;999.90;;;11.50;99.90;;;;;;5041462;28;20172;-70
2022/04/16 07:35:55;;;;;;;1999.90;999.90;;;11.60;99.90;;;;;;5040659;28;20276;-69
2022/04/16 07:38:21;;;;;;;1999.90;999.90;;;11.70;99.90;;;;;;5041128;28;20427;-70
2022/04/16 07:40:47;;;;;;;1999.90;999.90;;;11.80;99.90;;;;;;5023876;28;20497;-69
2022/04/16 07:43:14;;;;;;;1999.90;999.90;;;11.90;99.90;;;;;;5040986;28;20407;-69
2022/04/16 07:45:40;;;;;;;1999.90;999.90;;;12.00;99.90;;;;;;5041301;28;20168;-69
2022/04/16 07:48:06;;;;;;;1999.90;999.90;;;12.20;99.90;;;;;;5040885;28;20442;-70
2022/04/16 07:50:31;;;;;;;1999.90;999.90;;;12.30;99.90;;;;;;5041218;28;20173;-70
2022/04/16 07:52:57;;;;;;;1999.90;999.90;;;12.30;99.90;;;;;;5022351;28;20176;-70
2022/04/16 07:55:23;;;;;;;1999.90;999.90;;;12.40;99.90;;;;;;5022641;28;20196;-70
2022/04/16 07:57:49;;;;;;;1999.90;999.90;;;12.50;99.90;;;;;;5039969;28;20188;-70
2022/04/16 08:00:15;;;;;;;1999.90;999.90;;;12.60;99.90;;;;;;5039337;28;20637;-69
2022/04/16 08:02:40;;;;;;;1999.90;999.90;;;12.60;99.90;;;;;;5038976;28;20169;-69
2022/04/16 08:05:07;;;;;;;1999.90;999.90;;;12.80;99.90;;;;;;5038179;28;20407;-70
2022/04/16 08:07:33;;;;;;;1999.90;999.90;;;12.80;99.90;;;;;;5033219;28;20526;-71
2022/04/16 08:09:58;;;;;;;1999.90;999.90;;;12.90;99.90;;;;;;5032920;28;20450;-69
2022/04/16 08:12:25;;;;;;;1999.90;999.90;;;13.00;99.90;;;;;;5033013;28;20213;-70
2022/04/16 08:14:52;;;;;;;1999.90;999.90;;;13.20;99.90;;;;;;5032720;28;20552;-69
2022/04/16 08:17:17;;;;;;;1999.90;999.90;;;13.30;99.90;;;;;;5038520;28;20454;-70
2022/04/16 08:19:44;;;;;;;1999.90;999.90;;;13.30;99.90;;;;;;5020504;28;20427;-69
2022/04/16 08:22:17;;;;;;;1999.90;999.90;;;13.40;99.90;;;;;;5038201;28;20158;-70
2022/04/16 08:24:55;;;;;;;1999.90;999.90;;;13.50;99.90;;;;;;5038474;28;20761;-69
2022/04/16 08:27:21;;;;;;;1999.90;999.90;;;13.50;99.90;;;;;;5038110;28;20924;-69
2022/04/16 08:29:47;;;;;;;1999.90;999.90;;;13.60;99.90;;;;;;5038202;28;20428;-70
2022/04/16 08:32:12;;;;;;;1999.90;999.90;;;13.80;99.90;;;;;;5036913;28;20422;-70
2022/04/16 08:34:38;;;;;;;1999.90;999.90;;;13.90;99.90;;;;;;5037823;28;20476;-70
2022/04/16 08:37:04;;;;;;;1999.90;999.90;;;13.90;99.90;;;;;;5038067;28;20169;-69
2022/04/16 08:39:29;;;;;;;1999.90;999.90;;;14.00;99.90;;;;;;5038892;28;20195;-70
2022/04/16 08:41:56;;;;;;;1999.90;999.90;;;14.10;99.90;;;;;;5037503;28;20443;-70
2022/04/16 08:44:25;;;;;;;1999.90;999.90;;;14.20;99.90;;;;;;5038007;28;20251;-69
2022/04/16 08:46:52;;;;;;;1999.90;999.90;;;14.30;99.90;;;;;;5036258;28;20405;-70
2022/04/16 08:49:20;;;;;;;1999.90;999.90;;;14.40;99.90;;;;;;5035753;28;20437;-70
2022/04/16 08:51:47;;;;;;;1999.90;999.90;;;14.60;99.90;;;;;;5035834;28;20410;-69
2022/04/16 08:54:13;;;;;;;1999.90;999.90;;;14.70;99.90;;;;;;5035620;28;20417;-70
2022/04/16 08:56:39;;;;;;;1999.90;999.90;;;14.70;99.90;;;;;;5035617;28;20403;-70
2022/04/16 08:59:05;;;;;;;1999.90;999.90;;;14.80;99.90;;;;;;5035610;28;20182;-70
2022/04/16 09:01:32;;;;;;;1999.90;999.90;;;15.00;99.90;;;;;;5036037;28;20418;-70
2022/04/16 09:03:59;;;;;;;1999.90;999.90;;;15.10;99.90;;;;;;5036520;28;20405;-69
2022/04/16 09:06:24;;;;;;;1999.90;999.90;;;15.20;99.90;;;;;;5033739;28;20407;-69
2022/04/16 09:08:50;;;;;;;1999.90;999.90;;;15.30;99.90;;;;;;5031961;28;20521;-69
2022/04/16 09:11:26;;;;;;;1999.90;999.90;;;15.20;99.90;;;;;;5032125;28;20165;-69
2022/04/16 09:13:53;;;;;;;1999.90;999.90;;;15.20;99.90;;;;;;5032036;28;20174;-70
2022/04/16 09:16:20;;;;;;;1999.90;999.90;;;15.10;99.90;;;;;;5031645;28;20471;-70
2022/04/16 09:18:50;;;;;;;1999.90;999.90;;;15.20;99.90;;;;;;5031756;28;20427;-70
2022/04/16 09:21:20;;;;;;;1999.90;999.90;;;15.50;99.90;;;;;;5031775;28;20399;-70
2022/04/16 09:23:51;;;;;;;1999.90;999.90;;;15.80;99.90;;;;;;5031942;28;20394;-70
2022/04/16 09:26:27;;;;;;;1999.90;999.90;;;16.30;99.90;;;;;;5031515;28;20929;-70
2022/04/16 09:28:53;;;;;;;1999.90;999.90;;;16.80;99.90;;;;;;5031765;28;20799;-70
2022/04/16 09:31:24;;;;;;;1999.90;999.90;;;17.10;99.90;;;;;;5033187;28;20421;-69
2022/04/16 09:33:49;;;;;;;1999.90;999.90;;;17.40;99.90;;;;;;5037363;28;20415;-70
2022/04/16 09:36:26;;;;;;;1999.90;999.90;;;17.60;99.90;;;;;;5033582;28;20545;-70
2022/04/16 09:39:00;;;;;;;1999.90;999.90;;;17.70;99.90;;;;;;5034328;28;20185;-70
2022/04/16 09:41:38;;;;;;;1999.90;999.90;;;17.80;99.90;;;;;;5035181;28;20408;-70
2022/04/16 09:44:15;;;;;;;1999.90;999.90;;;17.70;99.90;;;;;;5039984;28;20909;-69
2022/04/16 09:46:45;;;;;;;1999.90;999.90;;;17.60;99.90;;;;;;5039422;28;20433;-70
2022/04/16 09:49:12;;;;;;;1999.90;999.90;;;17.50;99.90;;;;;;5037421;28;20997;-70
2022/04/16 09:51:41;;;;;;;1999.90;999.90;;;17.40;99.90;;;;;;5035587;28;20424;-70
2022/04/16 09:54:09;;;;;;;1999.90;999.90;;;17.30;99.90;;;;;;5035298;28;20402;-70
2022/04/16 09:56:36;;;;;;;1999.90;999.90;;;17.10;99.90;;;;;;5035480;28;20416;-70
2022/04/16 09:59:07;;;;;;;1999.90;999.90;;;17.20;99.90;;;;;;5035546;28;20434;-69
2022/04/16 10:01:33;;;;;;;1999.90;999.90;;;17.30;99.90;;;;;;5035404;28;20395;-70
2022/04/16 10:04:02;;;;;;;1999.90;999.90;;;17.40;99.90;;;;;;5035195;28;20485;-70
2022/04/16 10:06:31;;;;;;;1999.90;999.90;;;17.60;99.90;;;;;;5035304;28;20451;-69
2022/04/16 10:09:13;;;;;;;1999.90;999.90;;;17.50;99.90;;;;;;5035182;28;20475;-70
2022/04/16 10:14:37;;;;;;;1999.90;999.90;;;17.50;99.90;;;;;;5035204;28;20458;-69
2022/04/16 10:17:25;;;;;;;1999.90;999.90;;;17.50;99.90;;;;;;5035418;28;20491;-69
2022/04/16 10:19:54;;;;;;;1999.90;999.90;;;17.60;99.90;;;;;;5035377;28;20399;-69
2022/04/16 10:22:27;;;;;;;1999.90;999.90;;;17.70;99.90;;;;;;5035244;28;20413;-69
2022/04/16 10:24:57;;;;;;;1999.90;999.90;;;17.60;99.90;;;;;;5034754;28;20470;-69
2022/04/16 10:27:27;;;;;;;1999.90;999.90;;;17.70;99.90;;;;;;5034915;28;20754;-70
2022/04/16 10:29:58;;;;;;;1999.90;999.90;;;17.80;99.90;;;;;;5034903;28;20782;-69
2022/04/16 10:32:37;;;;;;;1999.90;999.90;;;17.70;99.90;;;;;;5034876;28;20406;-69
2022/04/16 10:35:10;;;;;;;1999.90;999.90;;;18.00;99.90;;;;;;5034455;28;20492;-70
2022/04/16 10:37:38;;;;;;;1999.90;999.90;;;18.30;99.90;;;;;;5034716;28;20468;-71
2022/04/16 10:40:25;;;;;;;1999.90;999.90;;;18.50;99.90;;;;;;5034557;28;20501;-71
2022/04/16 10:42:59;;;;;;;1999.90;999.90;;;18.60;97.10;;;;;;5034682;28;20918;-70
2022/04/16 10:45:25;;;;;;;1999.90;999.90;;;18.60;98.10;;;;;;5034333;28;20468;-70
2022/04/16 10:47:57;;;;;;;1999.90;999.90;;;18.80;98.90;;;;;;5034478;28;20448;-70
2022/04/16 10:50:23;;;;;;;1999.90;999.90;;;18.80;94.20;;;;;;5034354;28;20469;-71
2022/04/16 10:53:01;;;;;;;1999.90;999.90;;;18.90;95.60;;;;;;5034493;28;20768;-70
2022/04/16 10:55:31;;;;;;;1999.90;999.90;;;19.00;95.40;;;;;;5033343;28;20465;-70
2022/04/16 10:58:05;;;;;;;1999.90;999.90;;;19.20;93.00;;;;;;5034404;28;20803;-70
2022/04/16 11:00:40;;;;;;;1999.90;999.90;;;19.30;92.20;;;;;;5032520;28;20418;-71
2022/04/16 11:03:17;;;;;;;1999.90;999.90;;;19.30;91.90;;;;;;5034005;28;20466;-70
2022/04/16 11:05:43;;;;;;;1999.90;999.90;;;19.20;90.90;;;;;;5030971;28;20426;-70
2022/04/16 11:08:14;;;;;;;1999.90;999.90;;;19.20;91.70;;;;;;5033235;28;20423;-71
2022/04/16 11:10:41;;;;;;;1999.90;999.90;;;19.30;91.60;;;;;;5033666;28;20419;-70
2022/04/16 11:13:08;;;;;;;1999.90;999.90;;;19.40;88.30;;;;;;5032796;28;20439;-71
2022/04/16 11:15:34;;;;;;;1999.90;999.90;;;19.40;75.30;;;;;;5033282;28;20476;-70
2022/04/16 11:18:01;;;;;;;1999.90;999.90;;;19.50;82.00;;;;;;5033166;28;20429;-70
2022/04/16 11:20:28;;;;;;;1999.90;999.90;;;19.50;81.50;;;;;;5032962;28;20263;-70
2022/04/16 11:22:54;;;;;;;1999.90;999.90;;;19.70;79.10;;;;;;5033579;28;20413;-71
2022/04/16 11:25:24;;;;;;;1999.90;999.90;;;19.70;77.90;;;;;;5033172;28;20429;-70
2022/04/16 11:36:09;;;;;;;1999.90;999.90;;;19.70;67.30;;;;;;5032527;28;20457;-71
2022/04/16 11:38:36;;;;;;;1999.90;999.90;;;19.80;75.10;;;;;;5033013;28;20460;-70
2022/04/16 11:41:12;;;;;;;1999.90;999.90;;;19.70;67.70;;;;;;5033134;28;20410;-70
2022/04/16 11:43:51;;;;;;;1999.90;999.90;;;19.70;68.40;;;;;;5032668;28;20779;-70
2022/04/16 11:46:17;;;;;;;1999.90;999.90;;;19.50;63.50;;;;;;5032755;28;20509;-70
2022/04/16 11:48:46;;;;;;;1999.90;999.90;;;19.60;68.10;;;;;;5032807;28;20433;-70
2022/04/16 11:51:13;;;;;;;1999.90;999.90;;;20.00;71.80;;;;;;5032416;28;20412;-70
2022/04/16 11:53:47;;;;;;;1999.90;999.90;;;20.60;70.70;;;;;;5033034;28;20417;-70
2022/04/16 11:56:18;;;;;;;1999.90;999.90;;;21.20;61.10;;;;;;5032544;28;20456;-70
2022/04/16 11:58:49;;;;;;;1999.90;999.90;;;22.10;57.70;;;;;;5032315;28;20430;-70
2022/04/16 12:01:19;;;;;;;1999.90;999.90;;;23.20;56.70;;;;;;5032834;28;20510;-71
2022/04/16 12:03:44;;;;;;;1999.90;999.90;;;23.90;47.60;;;;;;5032640;28;20415;-71
2022/04/16 12:06:11;;;;;;;1999.90;999.90;;;24.70;39.60;;;;;;5031796;28;20477;-71
2022/04/16 12:08:39;;;;;;;1999.90;999.90;;;25.20;35.20;;;;;;5032456;28;20654;-70
2022/04/16 12:11:05;;;;;;;1999.90;999.90;;;25.60;31.60;;;;;;5032523;28;20390;-71
2022/04/16 12:13:39;;;;;;;1999.90;999.90;;;26.20;28.20;;;;;;5032161;28;20418;-71
2022/04/16 12:16:07;;;;;;;1999.90;999.90;;;26.50;27.20;;;;;;5031998;28;21014;-71
2022/04/16 12:18:37;;;;;;;1999.90;999.90;;;27.10;25.10;;;;;;5032369;28;20485;-71
2022/04/16 12:21:07;;;;;;;1999.90;999.90;;;27.40;23.70;;;;;;5031907;28;20411;-70
2022/04/16 12:23:33;;;;;;;1999.90;999.90;;;27.70;21.00;;;;;;5032415;28;20411;-70
2022/04/16 12:26:06;;;;;;;1999.90;999.90;;;28.10;21.30;;;;;;5031946;28;20473;-71